KLHB

Details ICAO KLHB
Name HEARNE MUNI
Region United States
Timezone America/Chicago (UTC-5.0)
Plans Departing 2
Arriving 5
Stats Elevation 285 ft / 87 m (AMSL)
Location 30.871831° -96.622228°
Runways 1
Magnetic Variation 3.157° E
Sunrise 2018-05-21 11:29:23 UTC / 2018-05-21 06:29:23 Local
Sunset 2018-05-22 01:19:40 UTC / 2018-05-21 20:19:40 Local
Advertisement - Login to hide

Runways

ID Width Length Bearing (true) Bearing (mag) Surface Threshold Offset Overrun Length
18 75 ft / 23 m 4,012 ft / 1,223 m 180.00° 176.84° Asphalt 0 ft / 0 m 1,140 ft / 347 m
36 75 ft / 23 m 4,012 ft / 1,223 m 0.00° 356.84° Asphalt 0 ft / 0 m 2,160 ft / 658 m

Map

Weather


0- 5 10 15 20 25 30 35+ Temperature / ° C

Clouds and Precipitation
Forecast for 2018-05-21 18:00 UTC. Updated 33 minutes ago

Ground ~20,000 ft ~40,000 ft Winds

METAR

KLHB 211715Z AUTO 08003KT 10SM SCT018 BKN024 BKN030 27/22 A3003 RMK AO2 T02700224

TAF

Not found

Frequencies

Recorded 118.67 MHz AWOS 3
Unicom 122.90 MHz CTAF
Warning: Do not use this data for real-world aviation or navigation. No guarantee of current accuracy is given.